Hlavní strana
METAR-TAF:

METAR-TAF

Letiště :

Bělgorod, Rusko

zeměpisná šířka: 50-38-36N, zeměpisná délka: 036-35-24E, výška: 224 m

Aktuální stav počasí

Zpráva byla vytvořena před 17 minutami, v 22:00 UTC
Jihovýchodní vítr 4 kt
Teplota 5°C
Vlhkost vzduchu 75%
Tlak 1008 hPa
Viditelnost 10 km a více
Polojasno ve výšce 4000 ft

METAR: UUOB 252200Z 13002MPS 9999 SCT040 05/01 Q1008 R11/010060 NOSIG

Čas: 01:17 (22:17 UTC)

Předpověď počasí

Zpráva byla vytvořena před 2 hodinami a 17 minutami, v 20:00 UTC
Předpověď platná od 25 v 21 UTC do 26 v 06 UTC
Jihojihovýchodní vítr 6 kt
Viditelnost: 3100 m
Oblačno až skoro zataženo ve výšce 400 ft
slabý déšť, kouřmo
Dočasný
od 25 v 21 UTC do 26 v 03 UTC
Viditelnost: 0500 m
ve výšce 300 ft
déšť, sníh, mlha

TAF: UUOB 252000Z 2521/2606 15003MPS 3100 -RA BR BKN004 TEMPO 2521/2603 0500 RASN FG VV003

Stav a předpovědi počasí z více než 4 000 letišť (zprávy METAR a TAF).

Červené a žluté tečky na mapě představují dostupné meteorologické stanice.

Když kurzor umístíte na tečku, zobrazí se název stanice.

Pak kliknutím zobrazíte stav a předpověď počasí.

Chcete-li změnit mapu, kliknutím na zelené tlačítko se znaménkem +mapu přiblížíte, kliknutím na zelené tlačítko se znaménkem – mapu oddálíte a kliknutím na zelené šipky přejdete na sousední mapy.


METAR-TAF: